Time;durP1;ratioP1;P1;durP2;ratioP2;P2;SDS_P1;SDS_P2;PMS_P1;PMS_P2;Temp;Humidity;BMP_temperature;BMP_pressure;BME280_temperature;BME280_humidity;BME280_pressure;Samples;Min_cycle;Max_cycle;Signal;HPM_P1;HPM_P2
2023/06/24 00:01:24;;;;;;;4.60;4.13;;;;;;;;;;4936111;29;20027;-75
2023/06/24 00:03:53;;;;;;;6.18;4.57;;;;;;;;;;4936965;29;20418;-75
2023/06/24 00:06:25;;;;;;;5.13;4.22;;;;;;;;;;4935384;29;20473;-75
2023/06/24 00:08:52;;;;;;;5.78;4.60;;;;;;;;;;4934484;29;20191;-75
2023/06/24 00:11:18;;;;;;;5.25;4.20;;;;;;;;;;4937164;29;20036;-75
2023/06/24 00:13:44;;;;;;;5.63;4.53;;;;;;;;;;4938549;29;20031;-76
2023/06/24 00:16:10;;;;;;;6.25;4.53;;;;;;;;;;4936364;29;20043;-77
2023/06/24 00:18:37;;;;;;;4.97;3.95;;;;;;;;;;4937289;29;20032;-76
2023/06/24 00:21:04;;;;;;;4.95;4.18;;;;;;;;;;4936372;29;20032;-75
2023/06/24 00:23:34;;;;;;;5.75;4.68;;;;;;;;;;4937105;29;20102;-76
2023/06/24 00:26:00;;;;;;;7.03;4.60;;;;;;;;;;4936529;29;20473;-76
2023/06/24 00:28:27;;;;;;;5.00;4.22;;;;;;;;;;4930818;29;20495;-77
2023/06/24 00:30:53;;;;;;;5.75;4.75;;;;;;;;;;4937758;29;20031;-76
2023/06/24 00:33:20;;;;;;;4.63;4.05;;;;;;;;;;4920734;29;20471;-77
2023/06/24 00:35:46;;;;;;;5.28;4.22;;;;;;;;;;4936690;29;20032;-76
2023/06/24 00:38:12;;;;;;;6.80;4.32;;;;;;;;;;4935328;29;20040;-76
2023/06/24 00:40:39;;;;;;;8.60;4.60;;;;;;;;;;4935724;29;20066;-76
2023/06/24 00:43:05;;;;;;;5.25;4.40;;;;;;;;;;4935763;29;20418;-76
2023/06/24 00:45:31;;;;;;;5.53;4.28;;;;;;;;;;4932967;29;20072;-76
2023/06/24 00:47:58;;;;;;;5.07;3.97;;;;;;;;;;4936476;29;20042;-76
2023/06/24 00:50:24;;;;;;;6.90;4.68;;;;;;;;;;4928059;29;20035;-76
2023/06/24 00:52:50;;;;;;;4.82;4.32;;;;;;;;;;4936783;29;20036;-77
2023/06/24 00:55:17;;;;;;;5.60;4.70;;;;;;;;;;4935278;29;20098;-76
2023/06/24 00:57:51;;;;;;;6.00;4.22;;;;;;;;;;4936495;29;20034;-76
2023/06/24 01:00:18;;;;;;;5.07;4.05;;;;;;;;;;4935015;29;20024;-75
2023/06/24 01:02:45;;;;;;;5.38;4.35;;;;;;;;;;4932523;29;20031;-75
2023/06/24 01:05:11;;;;;;;6.90;4.60;;;;;;;;;;4935092;29;20035;-76
2023/06/24 01:07:41;;;;;;;5.55;4.32;;;;;;;;;;4935763;29;20381;-76
2023/06/24 01:10:08;;;;;;;5.60;4.60;;;15.70;99.90;;;;;;4934800;29;20043;-76
2023/06/24 01:12:36;;;;;;;5.97;4.35;;;15.60;99.90;;;;;;4931729;29;20028;-76
2023/06/24 01:15:03;;;;;;;5.93;4.07;;;15.50;99.90;;;;;;4917940;29;20046;-76
2023/06/24 01:17:42;;;;;;;6.28;4.95;;;15.50;99.90;;;;;;4935757;29;20046;-76
2023/06/24 01:20:11;;;;;;;5.88;5.10;;;15.50;99.90;;;;;;4930889;29;20032;-75
2023/06/24 01:22:55;;;;;;;7.03;5.00;;;15.50;99.90;;;;;;4935344;29;20035;-75
2023/06/24 01:25:39;;;;;;;6.22;4.20;;;15.40;99.90;;;;;;4933982;29;20580;-74
2023/06/24 01:28:24;;;;;;;6.47;5.03;;;15.40;99.90;;;;;;4934862;29;20072;-76
2023/06/24 01:31:09;;;;;;;7.55;4.88;;;15.40;99.90;;;;;;4934509;29;20036;-77
2023/06/24 01:33:54;;;;;;;7.15;5.03;;;15.30;99.90;;;;;;4935656;29;20028;-77
2023/06/24 01:36:22;;;;;;;6.20;5.32;;;15.30;99.90;;;;;;4931312;29;20023;-76
2023/06/24 01:39:18;;;;;;;5.90;5.20;;;15.30;99.90;;;;;;4934717;29;20043;-76
2023/06/24 01:41:53;;;;;;;6.47;5.03;;;15.30;99.90;;;;;;4913648;29;20082;-76
2023/06/24 01:44:20;;;;;;;5.57;4.70;;;15.20;99.90;;;;;;4927058;29;20033;-77
2023/06/24 01:46:48;;;;;;;6.38;4.57;;;15.20;99.90;;;;;;4934581;29;20389;-78
2023/06/24 01:49:15;;;;;;;6.20;4.82;;;15.20;99.90;;;;;;4934153;29;20039;-77
2023/06/24 01:51:44;;;;;;;6.43;5.13;;;15.10;99.90;;;;;;4935774;29;20039;-77
2023/06/24 01:54:14;;;;;;;5.15;4.63;;;15.10;99.90;;;;;;4929933;29;20070;-77
2023/06/24 01:56:43;;;;;;;7.72;5.93;;;15.00;99.90;;;;;;4934983;29;20039;-77
2023/06/24 01:59:11;;;;;;;10.15;5.30;;;15.00;99.90;;;;;;4934220;29;20043;-75
2023/06/24 02:01:38;;;;;;;6.30;5.18;;;15.00;99.90;;;;;;4935111;29;20115;-75
2023/06/24 02:04:08;;;;;;;6.70;5.35;;;15.00;99.90;;;;;;4934153;29;20040;-75
2023/06/24 02:06:36;;;;;;;5.82;5.20;;;15.00;99.90;;;;;;4934171;29;20020;-75
2023/06/24 02:09:03;;;;;;;8.43;5.80;;;15.00;99.90;;;;;;4933713;29;20122;-75
2023/06/24 02:11:31;;;;;;;6.75;5.43;;;14.90;99.90;;;;;;4929312;29;20104;-75
2023/06/24 02:14:00;;;;;;;6.10;4.93;;;14.90;99.90;;;;;;4932125;29;20083;-75
2023/06/24 02:16:27;;;;;;;8.80;5.47;;;14.90;99.90;;;;;;4934810;29;20023;-75
2023/06/24 02:18:55;;;;;;;7.32;5.38;;;14.80;99.90;;;;;;4934873;29;20040;-75
2023/06/24 02:21:23;;;;;;;6.65;5.95;;;14.80;99.90;;;;;;4934565;29;20031;-75
2023/06/24 02:23:49;;;;;;;7.47;5.75;;;14.80;99.90;;;;;;4934942;29;20111;-74
2023/06/24 02:26:15;;;;;;;7.25;5.47;;;14.80;99.90;;;;;;4933725;29;20043;-75
2023/06/24 02:28:43;;;;;;;6.97;5.85;;;14.70;99.90;;;;;;4930482;29;20044;-75
2023/06/24 02:31:10;;;;;;;6.82;5.80;;;14.70;99.90;;;;;;4933099;29;20036;-75
2023/06/24 02:33:36;;;;;;;9.82;6.20;;;14.70;99.90;;;;;;4934760;29;20020;-75
2023/06/24 02:36:01;;;;;;;8.38;6.20;;;14.70;99.90;;;;;;4934200;29;20038;-75
2023/06/24 02:38:27;;;;;;;8.02;5.63;;;14.70;99.90;;;;;;4934493;29;20031;-76
2023/06/24 02:40:53;;;;;;;7.18;5.43;;;14.80;99.90;;;;;;4934225;29;20536;-75
2023/06/24 02:43:18;;;;;;;7.25;5.68;;;14.80;99.90;;;;;;4934057;29;20844;-75
2023/06/24 02:45:47;;;;;;;6.15;5.55;;;14.80;99.90;;;;;;4932059;29;20031;-75
2023/06/24 02:48:13;;;;;;;6.45;5.80;;;14.80;99.90;;;;;;4931519;29;20130;-75
2023/06/24 02:50:44;;;;;;;6.78;6.07;;;14.70;99.90;;;;;;4935257;29;20043;-75
2023/06/24 02:53:11;;;;;;;6.40;5.38;;;14.70;99.90;;;;;;4939576;29;20035;-76
2023/06/24 02:55:38;;;;;;;6.93;5.55;;;14.60;99.90;;;;;;4943125;29;20071;-76
2023/06/24 02:58:07;;;;;;;6.55;5.80;;;14.60;99.90;;;;;;4947675;29;20392;-75
2023/06/24 03:00:37;;;;;;;7.67;6.23;;;14.60;99.90;;;;;;4936364;29;20063;-75
2023/06/24 03:03:05;;;;;;;7.03;5.67;;;14.60;99.90;;;;;;4937284;29;20474;-75
2023/06/24 03:05:32;;;;;;;8.27;6.28;;;14.60;99.90;;;;;;4937579;29;20295;-76
2023/06/24 03:07:58;;;;;;;6.95;5.50;;;14.50;99.90;;;;;;4937778;29;20040;-76
2023/06/24 03:10:25;;;;;;;6.60;5.53;;;14.60;99.90;;;;;;4936669;29;20111;-74
2023/06/24 03:12:53;;;;;;;8.10;6.20;;;14.60;99.90;;;;;;4938123;29;20036;-75
2023/06/24 03:15:19;;;;;;;6.13;5.38;;;14.60;99.90;;;;;;4936922;29;20128;-74
2023/06/24 03:17:48;;;;;;;7.38;5.90;;;14.50;99.90;;;;;;4934316;29;20107;-74
2023/06/24 03:20:13;;;;;;;7.82;6.25;;;14.50;99.90;;;;;;4934095;29;20397;-74
2023/06/24 03:22:39;;;;;;;18.85;6.55;;;14.50;99.90;;;;;;4938050;29;20032;-76
2023/06/24 03:25:08;;;;;;;7.57;6.07;;;14.60;99.90;;;;;;4936679;29;20386;-76
2023/06/24 03:27:34;;;;;;;7.28;5.95;;;14.50;99.90;;;;;;4937587;29;20481;-74
2023/06/24 03:30:00;;;;;;;8.30;6.38;;;14.60;99.90;;;;;;4936806;29;20046;-74
2023/06/24 03:32:28;;;;;;;8.25;5.85;;;14.60;99.90;;;;;;4937260;29;20401;-76
2023/06/24 03:34:54;;;;;;;8.30;6.35;;;14.60;99.90;;;;;;4932109;29;20577;-77
2023/06/24 03:37:19;;;;;;;8.75;5.75;;;14.60;99.90;;;;;;4936681;29;20193;-76
2023/06/24 03:39:45;;;;;;;7.05;5.40;;;14.60;99.90;;;;;;4919445;29;20123;-76
2023/06/24 03:42:11;;;;;;;7.68;5.88;;;14.60;99.90;;;;;;4936199;29;20038;-76
2023/06/24 03:44:36;;;;;;;7.43;5.35;;;14.60;99.90;;;;;;4936942;29;20425;-76
2023/06/24 03:47:02;;;;;;;7.93;6.43;;;14.60;99.90;;;;;;4934162;29;20028;-76
2023/06/24 03:49:27;;;;;;;7.32;6.05;;;14.70;99.90;;;;;;4936921;29;20043;-76
2023/06/24 03:51:53;;;;;;;6.32;5.60;;;14.70;99.90;;;;;;4935654;29;20380;-76
2023/06/24 03:54:18;;;;;;;6.80;5.65;;;14.70;99.90;;;;;;4931791;29;20039;-76
2023/06/24 03:56:44;;;;;;;6.43;5.57;;;14.70;99.90;;;;;;4937136;29;20035;-76
2023/06/24 03:59:12;;;;;;;7.65;5.78;;;14.70;99.90;;;;;;4935952;29;20039;-75
2023/06/24 04:01:38;;;;;;;7.93;5.40;;;14.80;99.90;;;;;;4937073;29;20469;-75
2023/06/24 04:04:11;;;;;;;6.97;5.90;;;14.80;99.90;;;;;;4918455;29;20038;-74
2023/06/24 04:06:36;;;;;;;6.03;5.43;;;14.90;99.90;;;;;;4935221;29;20043;-76
2023/06/24 04:09:06;;;;;;;9.88;5.85;;;14.90;99.90;;;;;;4935512;29;20027;-75
2023/06/24 04:11:34;;;;;;;8.67;6.13;;;15.00;99.90;;;;;;4928750;29;20032;-75
2023/06/24 04:14:00;;;;;;;6.35;5.65;;;15.00;99.90;;;;;;4935871;29;20477;-75
2023/06/24 04:16:25;;;;;;;7.78;5.43;;;15.10;99.90;;;;;;4936153;29;20042;-76
2023/06/24 04:18:54;;;;;;;6.28;5.63;;;15.10;99.90;;;;;;4936533;29;20036;-75
2023/06/24 04:21:19;;;;;;;8.00;6.28;;;15.20;99.90;;;;;;4932548;29;20035;-75
2023/06/24 04:23:45;;;;;;;6.63;5.68;;;15.30;99.90;;;;;;4936636;29;20087;-76
2023/06/24 04:26:10;;;;;;;7.40;6.05;;;15.30;99.90;;;;;;4929272;29;20038;-75
2023/06/24 04:28:36;;;;;;;7.13;6.20;;;15.40;99.90;;;;;;4929389;29;20111;-75
2023/06/24 04:31:07;;;;;;;6.43;5.30;;;15.50;99.90;;;;;;4930410;29;20113;-75
2023/06/24 04:33:33;;;;;;;6.65;5.40;;;15.50;99.90;;;;;;4928996;29;20027;-75
2023/06/24 04:36:00;;;;;;;8.20;5.28;;;15.70;99.90;;;;;;4930599;29;20035;-75
2023/06/24 04:38:25;;;;;;;6.93;6.22;;;15.80;99.90;;;;;;4928928;29;20066;-75
2023/06/24 04:40:51;;;;;;;11.13;6.38;;;15.90;99.90;;;;;;4930334;29;20063;-75
2023/06/24 04:43:22;;;;;;;7.97;6.38;;;16.00;99.90;;;;;;4927891;29;20055;-76
2023/06/24 04:45:50;;;;;;;7.25;6.47;;;16.10;99.90;;;;;;4924931;29;20430;-76
2023/06/24 04:48:18;;;;;;;8.35;6.07;;;16.20;99.90;;;;;;4928086;29;20028;-76
2023/06/24 04:50:50;;;;;;;6.85;6.15;;;16.30;99.90;;;;;;4930328;29;20043;-76
2023/06/24 04:53:24;;;;;;;7.50;6.43;;;16.30;99.90;;;;;;4929596;29;20055;-76
2023/06/24 04:55:53;;;;;;;7.65;6.32;;;16.50;99.90;;;;;;4914211;29;20044;-76
2023/06/24 04:58:21;;;;;;;8.48;6.25;;;16.60;99.90;;;;;;4927262;29;20095;-75
2023/06/24 05:00:49;;;;;;;8.23;6.82;;;16.60;99.90;;;;;;4929596;29;20028;-76
2023/06/24 05:03:36;;;;;;;7.30;6.38;;;16.70;99.90;;;;;;4927191;29;20036;-76
2023/06/24 05:06:04;;;;;;;7.93;6.05;;;16.70;99.90;;;;;;4911257;29;20039;-75
2023/06/24 05:08:32;;;;;;;8.00;6.70;;;16.80;99.90;;;;;;4929413;29;20118;-75
2023/06/24 05:10:58;;;;;;;7.35;6.22;;;16.90;99.90;;;;;;4929860;29;20481;-76
2023/06/24 05:14:03;;;;;;;8.65;6.78;;;16.90;99.90;;;;;;4929692;29;20055;-75
2023/06/24 05:16:28;;;;;;;8.82;6.55;;;17.00;99.90;;;;;;4934418;29;20047;-75
2023/06/24 05:19:05;;;;;;;8.57;5.93;;;17.10;99.90;;;;;;4915255;29;20035;-76
2023/06/24 05:21:30;;;;;;;9.13;6.15;;;17.20;99.90;;;;;;4928654;29;20113;-77
2023/06/24 05:23:56;;;;;;;8.32;6.15;;;17.30;99.90;;;;;;4935528;29;20104;-76
2023/06/24 05:26:25;;;;;;;6.85;6.13;;;17.30;99.90;;;;;;4934038;29;20103;-76
2023/06/24 05:28:53;;;;;;;7.50;6.15;;;17.40;99.90;;;;;;4929432;29;20046;-76
2023/06/24 05:31:22;;;;;;;6.95;5.93;;;17.50;99.90;;;;;;4927982;29;20040;-76
2023/06/24 05:33:53;;;;;;;8.35;6.22;;;17.60;99.90;;;;;;4934601;29;20038;-76
2023/06/24 05:36:18;;;;;;;5.55;4.97;;;17.70;99.90;;;;;;4933827;29;20036;-74
2023/06/24 05:38:49;;;;;;;6.15;5.43;;;17.80;99.90;;;;;;4934942;29;20040;-76
2023/06/24 05:41:30;;;;;;;5.90;5.20;;;17.90;99.90;;;;;;4926845;29;20031;-77
2023/06/24 05:44:11;;;;;;;7.35;5.60;;;18.00;99.90;;;;;;4934476;29;20035;-74
2023/06/24 05:46:37;;;;;;;5.97;5.20;;;18.20;99.90;;;;;;4929064;29;20473;-78
2023/06/24 05:49:06;;;;;;;6.97;5.38;;;18.30;99.90;;;;;;4922613;29;20048;-75
2023/06/24 05:51:50;;;;;;;9.38;5.78;;;18.50;99.90;;;;;;4925687;29;20497;-77
2023/06/24 05:54:21;;;;;;;6.00;5.10;;;18.70;99.90;;;;;;4928849;29;20039;-78
2023/06/24 05:56:55;;;;;;;7.45;5.97;;;18.90;99.90;;;;;;4926022;29;20027;-78
2023/06/24 05:59:26;;;;;;;7.95;5.15;;;19.00;99.90;;;;;;4926246;29;20039;-79
2023/06/24 06:01:57;;;;;;;8.40;5.70;;;19.10;99.90;;;;;;4928913;29;20093;-75
2023/06/24 06:04:22;;;;;;;7.75;5.43;;;19.30;99.90;;;;;;4926644;29;20597;-75
2023/06/24 06:07:00;;;;;;;6.82;5.35;;;19.40;99.90;;;;;;4930759;29;20091;-79
2023/06/24 06:09:25;;;;;;;6.63;5.03;;;19.60;99.90;;;;;;4927635;29;20043;-80
2023/06/24 06:12:02;;;;;;;7.40;5.38;;;19.70;99.90;;;;;;4925208;29;20496;-82
2023/06/24 06:14:28;;;;;;;5.45;4.95;;;19.80;99.90;;;;;;4930019;29;20043;-74
2023/06/24 06:16:54;;;;;;;8.60;5.10;;;19.90;99.90;;;;;;4928553;29;20036;-77
2023/06/24 06:19:19;;;;;;;7.68;4.82;;;20.00;99.90;;;;;;4925498;29;20032;-75
2023/06/24 06:21:49;;;;;;;5.50;4.97;;;20.10;99.90;;;;;;4929902;29;20055;-76
2023/06/24 06:24:17;;;;;;;5.87;5.27;;;20.20;99.90;;;;;;4932956;29;20030;-80
2023/06/24 06:26:48;;;;;;;5.60;4.50;;;20.30;99.90;;;;;;4934490;29;20348;-73
2023/06/24 06:29:17;;;;;;;4.55;4.10;;;20.40;99.90;;;;;;4932619;29;20032;-75
2023/06/24 06:31:48;;;;;;;6.25;3.83;;;20.50;99.90;;;;;;4934137;29;20028;-74
2023/06/24 06:34:23;;;;;;;4.53;4.00;;;20.70;99.90;;;;;;4932742;29;20028;-74
2023/06/24 06:36:51;;;;;;;4.88;3.97;;;20.80;99.90;;;;;;4933950;29;20393;-75
2023/06/24 06:39:19;;;;;;;4.93;3.97;;;20.80;99.90;;;;;;4929799;29;20476;-75
2023/06/24 06:41:45;;;;;;;4.93;3.63;;;20.90;99.90;;;;;;4934419;29;20023;-75
2023/06/24 06:44:16;;;;;;;4.38;3.97;;;21.00;99.90;;;;;;4932570;29;20521;-75
2023/06/24 06:46:44;;;;;;;5.07;3.67;;;21.00;99.90;;;;;;4930091;29;20036;-75
2023/06/24 06:49:13;;;;;;;5.45;4.35;;;21.10;99.90;;;;;;4932588;29;20048;-75
2023/06/24 06:51:41;;;;;;;6.43;3.63;;;21.20;99.90;;;;;;4934361;29;20519;-69
2023/06/24 06:54:10;;;;;;;5.63;4.05;;;21.30;99.90;;;;;;4932584;29;20035;-72
2023/06/24 06:56:48;;;;;;;5.68;3.47;;;21.40;99.90;;;;;;4930347;29;20064;-73
2023/06/24 06:59:17;;;;;;;4.55;3.72;;;21.60;99.90;;;;;;4932764;29;20370;-73
2023/06/24 07:01:49;;;;;;;4.30;3.80;;;21.80;99.90;;;;;;4934001;29;20035;-73
2023/06/24 07:04:14;;;;;;;5.57;3.75;;;21.90;99.60;;;;;;4932579;29;20489;-74
2023/06/24 07:06:45;;;;;;;3.83;3.42;;;22.00;99.50;;;;;;4933753;29;20106;-73
2023/06/24 07:09:11;;;;;;;3.95;3.42;;;22.10;99.20;;;;;;4932240;29;20032;-74
2023/06/24 07:11:44;;;;;;;3.97;3.63;;;22.10;99.00;;;;;;4933787;29;20039;-73
2023/06/24 07:14:10;;;;;;;4.43;4.03;;;22.20;98.70;;;;;;4923533;29;20032;-73
2023/06/24 07:16:36;;;;;;;4.55;3.40;;;22.30;98.70;;;;;;4934371;29;20039;-74
2023/06/24 07:19:13;;;;;;;3.97;3.50;;;22.40;98.40;;;;;;4932860;29;20103;-74
2023/06/24 07:21:47;;;;;;;4.70;3.88;;;22.60;98.00;;;;;;4933859;29;20028;-71
2023/06/24 07:24:12;;;;;;;3.67;3.25;;;22.70;97.60;;;;;;4930068;29;20028;-70
2023/06/24 07:26:38;;;;;;;5.10;3.95;;;22.80;97.10;;;;;;4933537;29;20035;-70
2023/06/24 07:29:07;;;;;;;3.92;3.63;;;22.90;96.70;;;;;;4929734;29;20114;-73
2023/06/24 07:31:35;;;;;;;3.80;3.22;;;22.90;96.40;;;;;;4930902;29;20031;-72
2023/06/24 07:34:01;;;;;;;5.43;3.45;;;23.20;99.90;;;;;;4933281;29;20075;-74
2023/06/24 07:36:32;;;;;;;5.90;3.53;;;23.20;99.90;;;;;;4933311;29;20059;-72
2023/06/24 07:39:04;;;;;;;4.30;3.90;;;23.30;95.60;;;;;;4929346;29;20078;-80
2023/06/24 07:41:29;;;;;;;6.20;4.03;;;23.40;99.90;;;;;;4929433;29;20040;-74
2023/06/24 07:43:58;;;;;;;4.10;3.67;;;23.50;99.90;;;;;;4934625;29;20484;-74
2023/06/24 07:46:23;;;;;;;4.30;3.38;;;23.50;99.90;;;;;;4933734;29;20726;-74
2023/06/24 07:48:55;;;;;;;3.63;3.33;;;23.60;99.90;;;;;;4904522;29;20071;-75
2023/06/24 07:51:24;;;;;;;4.22;3.55;;;23.70;99.90;;;;;;4928848;29;20024;-74
2023/06/24 07:53:52;;;;;;;6.90;3.70;;;23.80;99.90;;;;;;4934320;29;20445;-75
2023/06/24 07:56:21;;;;;;;4.60;3.70;;;24.00;99.90;;;;;;4932427;29;20119;-74
2023/06/24 07:58:46;;;;;;;4.60;3.80;;;24.00;99.10;;;;;;4934997;29;20031;-74
2023/06/24 08:01:12;;;;;;;5.22;3.72;;;24.20;97.30;;;;;;4935217;29;20058;-73
2023/06/24 08:03:43;;;;;;;5.18;3.60;;;24.20;96.70;;;;;;4935545;29;20083;-73
2023/06/24 08:06:27;;;;;;;6.20;3.92;;;24.30;96.10;;;;;;4931745;29;20050;-75
2023/06/24 08:08:55;;;;;;;4.88;3.70;;;24.30;95.20;;;;;;4928904;29;20456;-73
2023/06/24 08:11:27;;;;;;;4.38;3.50;;;24.40;94.60;;;;;;4914024;29;20047;-72
2023/06/24 08:13:55;;;;;;;4.10;3.70;;;24.40;94.50;;;;;;4935553;29;20036;-75
2023/06/24 08:16:20;;;;;;;4.45;3.85;;;24.50;95.00;;;;;;4934001;29;20055;-73
2023/06/24 08:18:46;;;;;;;3.75;3.45;;;24.50;95.00;;;;;;4935848;29;20440;-73
2023/06/24 08:21:12;;;;;;;4.15;3.67;;;24.60;95.50;;;;;;4935550;29;20034;-73
2023/06/24 08:23:40;;;;;;;4.45;4.05;;;24.60;95.30;;;;;;4933510;29;20023;-73
2023/06/24 08:26:07;;;;;;;3.83;3.45;;;24.50;95.20;;;;;;4934744;29;20118;-72
2023/06/24 08:28:32;;;;;;;3.58;3.22;;;24.60;95.30;;;;;;4931177;29;20122;-72
2023/06/24 08:31:00;;;;;;;3.70;3.30;;;24.80;95.80;;;;;;4934917;29;20131;-72
2023/06/24 08:33:37;;;;;;;4.72;3.70;;;24.80;95.90;;;;;;4935666;29;20077;-72
2023/06/24 08:36:03;;;;;;;3.85;3.28;;;24.90;96.10;;;;;;4931478;29;20103;-74
2023/06/24 08:38:31;;;;;;;3.42;3.13;;;25.00;96.90;;;;;;4936138;29;20469;-72
2023/06/24 08:41:06;;;;;;;3.70;3.33;;;25.00;98.60;;;;;;4933542;29;20028;-72
2023/06/24 08:43:31;;;;;;;3.45;3.15;;;25.10;98.80;;;;;;4935153;29;20114;-72
2023/06/24 08:46:05;;;;;;;4.32;3.60;;;25.20;99.90;;;;;;4935195;29;20127;-72
2023/06/24 08:48:32;;;;;;;3.60;3.30;;;25.30;99.90;;;;;;4932968;29;20091;-72
2023/06/24 08:51:00;;;;;;;6.20;3.90;;;;;;;;;;4935800;29;20441;-71
2023/06/24 08:53:29;;;;;;;3.83;3.42;;;;;;;;;;4934520;29;20107;-72
2023/06/24 08:55:57;;;;;;;4.13;3.83;;;;;;;;;;4905884;29;20091;-72
2023/06/24 08:58:31;;;;;;;4.30;3.80;;;25.50;99.90;;;;;;4930767;29;20051;-72
2023/06/24 09:00:57;;;;;;;4.97;3.78;;;25.30;99.90;;;;;;4928535;29;20031;-70
2023/06/24 09:03:35;;;;;;;5.05;3.25;;;25.20;99.90;;;;;;4934978;29;20795;-71
2023/06/24 09:06:06;;;;;;;3.78;3.30;;;25.20;99.90;;;;;;4932986;29;20036;-74
2023/06/24 09:08:35;;;;;;;3.72;3.33;;;25.30;99.90;;;;;;4935941;29;20040;-72
2023/06/24 09:11:01;;;;;;;4.75;3.15;;;25.40;99.90;;;;;;4934876;29;20031;-73
2023/06/24 09:13:41;;;;;;;3.97;3.47;;;25.40;99.70;;;;;;4935284;29;20028;-72
2023/06/24 09:16:25;;;;;;;6.47;3.40;;;25.50;99.90;;;;;;4931095;29;20362;-71
2023/06/24 09:19:00;;;;;;;7.05;3.05;;;25.60;99.80;;;;;;4932134;29;20043;-72
2023/06/24 09:21:28;;;;;;;5.07;3.15;;;25.70;98.60;;;;;;4932008;29;20035;-72
2023/06/24 09:23:55;;;;;;;5.28;3.13;;;25.80;95.70;;;;;;4935293;29;20040;-72
2023/06/24 09:26:25;;;;;;;4.38;3.00;;;25.90;94.20;;;;;;4934191;29;20047;-72
2023/06/24 09:28:59;;;;;;;3.65;3.22;;;25.90;94.00;;;;;;4930854;29;20043;-72
2023/06/24 09:31:28;;;;;;;3.25;2.95;;;26.00;93.90;;;;;;4934311;29;20043;-72
2023/06/24 09:34:00;;;;;;;4.75;3.25;;;26.00;93.90;;;;;;4934720;29;20039;-72
2023/06/24 09:36:34;;;;;;;3.20;2.90;;;26.10;94.90;;;;;;4931470;29;20091;-72
2023/06/24 09:39:08;;;;;;;3.60;3.13;;;;;;;;;;4934734;29;20048;-73
2023/06/24 09:41:37;;;;;;;3.45;3.03;;;;;;;;;;4935278;29;20028;-72
2023/06/24 09:44:08;;;;;;;4.45;3.40;;;;;;;;;;4934696;29;20079;-73
2023/06/24 09:46:36;;;;;;;3.72;3.03;;;;;;;;;;4934545;29;20103;-72
2023/06/24 09:49:05;;;;;;;3.50;3.05;;;;;;;;;;4934753;29;20068;-71
2023/06/24 09:51:40;;;;;;;4.72;3.33;;;;;;;;;;4935069;29;20027;-71
2023/06/24 09:54:09;;;;;;;3.75;3.45;;;;;;;;;;4923113;29;20102;-73
2023/06/24 09:56:43;;;;;;;4.30;3.45;;;;;;;;;;4934580;29;20062;-73
2023/06/24 09:59:09;;;;;;;4.93;3.22;;;;;;;;;;4934014;29;20031;-71
2023/06/24 10:01:38;;;;;;;6.15;3.40;;;;;;;;;;4934881;29;20027;-70
2023/06/24 10:04:05;;;;;;;3.80;3.42;;;;;;;;;;4933509;29;20426;-73
2023/06/24 10:06:34;;;;;;;4.75;3.53;;;;;;;;;;4934574;29;20095;-70
2023/06/24 10:09:03;;;;;;;4.43;3.00;;;;;;;;;;4939168;29;20095;-73
2023/06/24 10:11:29;;;;;;;5.60;3.70;;;;;;;;;;4934213;29;20147;-71
2023/06/24 10:13:55;;;;;;;3.38;3.08;;;;;;;;;;4934862;29;20032;-70
2023/06/24 10:16:24;;;;;;;3.67;3.38;;;;;;;;;;4933598;29;20557;-72
2023/06/24 10:18:53;;;;;;;4.93;3.33;;;;;;;;;;4932135;29;20042;-72
2023/06/24 10:21:19;;;;;;;4.55;3.88;;;;;;;;;;4932817;29;20035;-71
2023/06/24 10:23:47;;;;;;;4.00;3.03;;;;;;;;;;4935269;29;20461;-70
2023/06/24 10:26:30;;;;;;;4.13;3.38;;;;;;;;;;4926020;29;20114;-71
2023/06/24 10:29:08;;;;;;;4.97;3.28;;;;;;;;;;4927663;29;20071;-71
2023/06/24 10:31:56;;;;;;;3.50;3.20;;;27.20;72.50;;;;;;4934508;29;20038;-71
2023/06/24 10:34:27;;;;;;;4.72;2.88;;;27.30;72.90;;;;;;4927596;29;20030;-71
2023/06/24 10:37:11;;;;;;;4.47;2.90;;;27.50;72.40;;;;;;4934563;29;20118;-71
2023/06/24 10:40:05;;;;;;;3.83;2.90;;;27.60;69.50;;;;;;4933604;29;20051;-71
2023/06/24 10:42:59;;;;;;;3.03;2.72;;;27.60;68.40;;;;;;4930340;29;20032;-71
2023/06/24 10:45:24;;;;;;;3.42;2.70;;;27.60;68.60;;;;;;4935616;29;20044;-70
2023/06/24 10:47:56;;;;;;;3.60;3.00;;;27.70;67.50;;;;;;4936085;29;20055;-71
2023/06/24 10:50:25;;;;;;;3.47;3.00;;;27.80;67.80;;;;;;4934530;29;20284;-70
2023/06/24 10:52:56;;;;;;;3.42;3.10;;;27.70;68.40;;;;;;4933662;29;20528;-71
2023/06/24 10:55:24;;;;;;;2.97;2.67;;;27.60;67.50;;;;;;4926977;29;20261;-72
2023/06/24 10:57:52;;;;;;;4.03;3.40;;;27.70;68.00;;;;;;4932487;29;20393;-72
2023/06/24 11:00:21;;;;;;;4.93;3.10;;;27.80;68.20;;;;;;4933484;29;20430;-71
2023/06/24 11:02:55;;;;;;;3.20;2.75;;;27.90;68.50;;;;;;4933968;29;20079;-71
2023/06/24 11:05:21;;;;;;;3.17;2.88;;;27.90;68.20;;;;;;4932639;29;20034;-70
2023/06/24 11:07:46;;;;;;;2.72;2.53;;;27.80;68.30;;;;;;4932847;29;20122;-71
2023/06/24 11:10:24;;;;;;;3.42;2.83;;;27.80;69.00;;;;;;4932893;29;20039;-71
2023/06/24 11:12:49;;;;;;;4.82;3.10;;;27.70;68.20;;;;;;4933339;29;20031;-71
2023/06/24 11:15:20;;;;;;;5.90;3.55;;;27.50;68.80;;;;;;4927541;29;20107;-72
2023/06/24 11:17:45;;;;;;;3.88;2.97;;;27.50;67.60;;;;;;4935471;29;20044;-72
2023/06/24 11:20:16;;;;;;;2.97;2.72;;;27.60;67.60;;;;;;4935667;29;20156;-72
2023/06/24 11:22:46;;;;;;;3.17;2.95;;;27.90;67.00;;;;;;4936853;29;20055;-72
2023/06/24 11:25:19;;;;;;;4.03;2.97;;;28.00;66.20;;;;;;4936241;29;20035;-72
2023/06/24 11:27:56;;;;;;;3.60;2.97;;;28.10;66.70;;;;;;4935476;29;20056;-72
2023/06/24 11:30:25;;;;;;;3.63;3.33;;;28.20;66.80;;;;;;4930884;29;20034;-72
2023/06/24 11:32:59;;;;;;;2.80;2.60;;;28.40;66.40;;;;;;4934614;29;20043;-72
2023/06/24 11:35:35;;;;;;;3.67;3.08;;;28.60;66.20;;;;;;4935430;29;20205;-72
2023/06/24 11:38:06;;;;;;;3.80;3.20;;;28.80;66.30;;;;;;4937561;29;20028;-73
2023/06/24 11:40:37;;;;;;;3.70;2.92;;;28.90;66.70;;;;;;4935365;29;20107;-72
2023/06/24 11:43:07;;;;;;;4.38;3.47;;;28.80;65.80;;;;;;4937209;29;20106;-73
2023/06/24 11:45:37;;;;;;;3.45;3.15;;;28.50;65.40;;;;;;4933693;29;20355;-72
2023/06/24 11:48:08;;;;;;;3.30;3.00;;;28.40;65.20;;;;;;4930168;29;20115;-73
2023/06/24 11:50:53;;;;;;;3.25;2.95;;;28.30;65.30;;;;;;4936950;29;20358;-72
2023/06/24 11:53:29;;;;;;;4.38;3.15;;;28.50;64.40;;;;;;4936815;29;20122;-72
2023/06/24 11:56:00;;;;;;;5.60;3.40;;;28.60;66.30;;;;;;4937164;29;20032;-72
2023/06/24 11:58:33;;;;;;;3.10;2.80;;;28.70;65.60;;;;;;4936581;29;20046;-72
2023/06/24 12:01:08;;;;;;;3.45;3.15;;;29.00;76.40;;;;;;4936638;29;20042;-72
2023/06/24 12:03:34;;;;;;;3.30;3.00;;;29.20;66.00;;;;;;4926994;29;20043;-72
2023/06/24 12:06:03;;;;;;;3.30;3.00;;;29.40;64.60;;;;;;4935961;29;20059;-73
2023/06/24 12:08:32;;;;;;;4.15;3.60;;;29.60;64.40;;;;;;4935733;29;20066;-72
2023/06/24 12:11:03;;;;;;;3.08;2.88;;;29.30;63.80;;;;;;4936739;29;20115;-72
2023/06/24 12:13:29;;;;;;;3.30;3.00;;;29.30;65.20;;;;;;4936800;29;20040;-72
2023/06/24 12:16:04;;;;;;;3.50;3.20;;;29.30;64.10;;;;;;4935885;29;20054;-71
2023/06/24 12:18:29;;;;;;;4.95;3.45;;;29.50;64.30;;;;;;4936370;29;20083;-71
2023/06/24 12:20:57;;;;;;;3.63;3.08;;;29.60;63.90;;;;;;4931996;29;20489;-71
2023/06/24 12:23:30;;;;;;;4.93;3.45;;;29.70;64.00;;;;;;4935201;29;20612;-71
2023/06/24 12:25:57;;;;;;;3.67;3.35;;;29.50;63.30;;;;;;4935284;29;20024;-71
2023/06/24 12:28:26;;;;;;;3.42;3.13;;;29.40;63.80;;;;;;4931619;29;20040;-71
2023/06/24 12:30:52;;;;;;;3.63;2.80;;;29.30;63.40;;;;;;4935122;29;20035;-71
2023/06/24 12:33:22;;;;;;;3.67;3.33;;;29.40;63.70;;;;;;4935709;29;20453;-71
2023/06/24 12:35:51;;;;;;;3.08;2.88;;;29.60;63.50;;;;;;4935448;29;20063;-71
2023/06/24 12:38:16;;;;;;;3.28;2.97;;;30.00;63.40;;;;;;4931493;29;20056;-72
2023/06/24 12:40:48;;;;;;;3.10;2.85;;;30.10;62.20;;;;;;4935340;29;20062;-71
2023/06/24 12:43:21;;;;;;;4.75;2.88;;;30.30;62.10;;;;;;4935574;29;20091;-72
2023/06/24 12:45:47;;;;;;;3.30;3.00;;;30.50;87.30;;;;;;4935682;29;20031;-71
2023/06/24 12:48:21;;;;;;;4.28;3.88;;;30.70;86.30;;;;;;4915594;29;20047;-71
2023/06/24 12:50:47;;;;;;;3.95;3.38;;;30.80;83.40;;;;;;4935914;29;20032;-71
2023/06/24 12:53:16;;;;;;;4.13;3.45;;;31.00;62.10;;;;;;4934996;29;20036;-72
2023/06/24 12:55:41;;;;;;;3.40;3.10;;;30.90;60.90;;;;;;4931248;29;20422;-72
2023/06/24 12:58:30;;;;;;;3.78;3.40;;;30.90;59.50;;;;;;4935173;29;20102;-72
2023/06/24 13:00:56;;;;;;;3.17;2.92;;;30.60;59.80;;;;;;4925099;29;20104;-71
2023/06/24 13:03:22;;;;;;;3.78;3.13;;;30.50;60.20;;;;;;4934578;29;20585;-72
2023/06/24 13:05:50;;;;;;;4.90;3.33;;;30.40;63.10;;;;;;4934686;29;20115;-71
2023/06/24 13:08:16;;;;;;;3.88;2.80;;;30.50;60.60;;;;;;4917723;29;20438;-72
2023/06/24 13:10:45;;;;;;;3.55;2.92;;;30.60;60.20;;;;;;4936307;29;20028;-72
2023/06/24 13:13:14;;;;;;;3.80;2.53;;;30.60;59.80;;;;;;4931946;29;20036;-72
2023/06/24 13:15:48;;;;;;;3.10;2.90;;;30.60;59.30;;;;;;4935017;29;20028;-72